createdAt,value
2023-03-23T15:58:52.598Z,100.00
2023-03-23T16:01:28.447Z,100.00
2023-03-23T16:04:22.253Z,100.00
2023-03-23T16:06:52.349Z,100.00
2023-03-23T16:09:21.181Z,100.00
2023-03-23T16:11:48.946Z,100.00
2023-03-23T16:14:16.351Z,100.00
2023-03-23T16:16:53.091Z,100.00
2023-03-23T16:19:24.498Z,100.00
2023-03-23T16:21:52.302Z,100.00
2023-03-23T16:24:19.944Z,100.00
2023-03-23T16:26:47.444Z,100.00
2023-03-23T16:29:28.222Z,100.00
2023-03-23T16:32:02.030Z,100.00
2023-03-23T16:34:33.405Z,100.00
2023-03-23T16:37:01.108Z,100.00
2023-03-23T16:39:28.955Z,100.00
2023-03-23T16:41:56.468Z,100.00
2023-03-23T16:44:23.986Z,100.00
2023-03-23T16:46:51.443Z,100.00
2023-03-23T16:49:18.899Z,100.00
2023-03-23T16:51:48.224Z,100.00
2023-03-23T16:54:15.992Z,100.00
2023-03-23T16:56:46.992Z,100.00
2023-03-23T16:59:14.891Z,100.00
2023-03-23T17:01:45.105Z,100.00
2023-03-23T17:04:12.809Z,100.00
2023-03-23T17:06:40.511Z,100.00
2023-03-23T17:09:08.069Z,100.00
2023-03-23T17:11:35.904Z,100.00
2023-03-23T17:14:03.431Z,100.00
2023-03-23T17:16:30.970Z,100.00
2023-03-23T17:18:58.451Z,100.00
2023-03-23T17:21:26.131Z,100.00
2023-03-23T17:23:53.948Z,100.00
2023-03-23T17:26:21.428Z,100.00
2023-03-23T17:28:49.004Z,100.00
2023-03-23T17:31:16.594Z,100.00
2023-03-23T17:33:44.051Z,100.00
2023-03-23T17:36:11.893Z,100.00
2023-03-23T17:38:39.440Z,100.00
2023-03-23T17:41:08.234Z,100.00
2023-03-23T17:43:36.499Z,100.00
2023-03-23T17:46:04.610Z,100.00
2023-03-23T17:48:32.140Z,100.00
2023-03-23T17:50:59.973Z,100.00
2023-03-23T17:53:27.845Z,100.00
2023-03-23T17:55:57.029Z,100.00
2023-03-23T17:58:27.874Z,100.00
2023-03-23T18:00:56.131Z,100.00
2023-03-23T18:03:25.072Z,100.00
2023-03-23T18:06:01.432Z,100.00
2023-03-23T18:08:29.634Z,100.00
2023-03-23T18:10:58.330Z,100.00
2023-03-23T18:13:27.693Z,100.00
2023-03-23T18:15:56.403Z,100.00
2023-03-23T18:18:24.852Z,100.00
2023-03-23T18:21:01.976Z,100.00
2023-03-23T18:23:39.016Z,100.00
2023-03-23T18:26:14.221Z,100.00
2023-03-23T18:28:41.782Z,99.98
2023-03-23T18:31:14.737Z,99.81
2023-03-23T18:33:46.849Z,99.73
2023-03-23T18:36:19.704Z,99.85
2023-03-23T18:38:48.542Z,99.82
2023-03-23T18:41:20.681Z,99.96
2023-03-23T18:43:48.186Z,99.81
2023-03-23T18:46:15.727Z,99.75
2023-03-23T18:48:43.987Z,99.98
2023-03-23T18:51:11.662Z,100.00
2023-03-23T18:53:39.158Z,100.00
2023-03-23T18:56:16.268Z,100.00
2023-03-23T18:58:46.210Z,100.00
2023-03-23T19:01:17.080Z,100.00
2023-03-23T19:03:45.461Z,100.00
2023-03-23T19:06:21.378Z,100.00
2023-03-23T19:08:49.680Z,99.79
2023-03-23T19:11:17.472Z,99.53
2023-03-23T19:13:58.418Z,99.33
2023-03-23T19:16:29.093Z,98.97
2023-03-23T19:18:56.510Z,99.48
2023-03-23T19:21:25.427Z,99.96
2023-03-23T19:23:55.048Z,100.00
2023-03-23T19:26:29.040Z,100.00
2023-03-23T19:31:28.194Z,100.00
2023-03-23T19:33:55.810Z,100.00
2023-03-23T19:36:24.449Z,100.00
2023-03-23T19:38:54.350Z,100.00
2023-03-23T19:41:22.178Z,100.00
2023-03-23T19:43:49.709Z,100.00
2023-03-23T19:46:17.789Z,100.00
2023-03-23T19:48:46.618Z,100.00
2023-03-23T19:51:18.785Z,100.00
2023-03-23T19:53:46.671Z,100.00
2023-03-23T19:56:18.106Z,100.00
2023-03-23T19:58:46.215Z,100.00
2023-03-23T20:01:13.786Z,100.00
2023-03-23T20:03:42.319Z,100.00
2023-03-23T20:06:15.033Z,100.00
2023-03-23T20:08:50.572Z,100.00
2023-03-23T20:11:19.602Z,100.00
2023-03-23T20:13:48.783Z,100.00
2023-03-23T20:16:17.916Z,100.00
2023-03-23T20:18:47.427Z,100.00
2023-03-23T20:21:20.018Z,100.00
2023-03-23T20:23:47.950Z,100.00
2023-03-23T20:26:27.261Z,100.00
2023-03-23T20:28:55.576Z,100.00
2023-03-23T20:31:26.693Z,100.00
2023-03-23T20:34:06.235Z,100.00
2023-03-23T20:36:37.682Z,100.00
2023-03-23T20:39:08.276Z,100.00
2023-03-23T20:41:36.478Z,100.00
2023-03-23T20:44:05.720Z,100.00
2023-03-23T20:46:33.811Z,100.00
2023-03-23T20:49:01.878Z,100.00
2023-03-23T20:51:29.813Z,100.00
2023-03-23T20:53:57.218Z,100.00
2023-03-23T20:56:25.734Z,100.00
2023-03-23T20:58:53.652Z,100.00
2023-03-23T21:01:21.688Z,100.00
2023-03-23T21:03:52.242Z,100.00
2023-03-23T21:06:21.209Z,100.00
2023-03-23T21:08:49.157Z,100.00
2023-03-23T21:11:21.804Z,100.00
2023-03-23T21:13:50.753Z,100.00
2023-03-23T21:16:19.057Z,100.00
2023-03-23T21:18:47.892Z,100.00
2023-03-23T21:21:18.502Z,100.00
2023-03-23T21:23:47.280Z,100.00
2023-03-23T21:26:17.057Z,100.00
2023-03-23T21:28:45.446Z,100.00
2023-03-23T21:31:13.684Z,100.00
2023-03-23T21:33:41.569Z,100.00
2023-03-23T21:36:09.449Z,100.00
2023-03-23T21:38:38.377Z,100.00
2023-03-23T21:41:14.021Z,100.00
2023-03-23T21:43:41.449Z,100.00
2023-03-23T21:46:09.730Z,100.00
2023-03-23T21:48:41.622Z,100.00
2023-03-23T21:51:13.645Z,100.00
2023-03-23T21:53:42.199Z,100.00
2023-03-23T21:56:11.715Z,100.00
2023-03-23T21:58:39.264Z,100.00
2023-03-23T22:01:07.140Z,100.00
2023-03-23T22:03:35.585Z,100.00
2023-03-23T22:06:26.416Z,100.00
2023-03-23T22:08:54.883Z,100.00
2023-03-23T22:11:31.740Z,100.00
2023-03-23T22:14:00.270Z,100.00
2023-03-23T22:16:28.383Z,100.00
2023-03-23T22:18:58.927Z,100.00
2023-03-23T22:21:28.438Z,100.00
2023-03-23T22:23:59.239Z,100.00
2023-03-23T22:26:27.786Z,100.00
2023-03-23T22:28:56.156Z,100.00
2023-03-23T22:31:27.758Z,100.00
2023-03-23T22:33:59.135Z,100.00
2023-03-23T22:36:29.318Z,100.00
2023-03-23T22:38:57.148Z,100.00
2023-03-23T22:41:35.736Z,100.00
2023-03-23T22:44:04.247Z,100.00
2023-03-23T22:46:32.213Z,100.00
2023-03-23T22:48:59.710Z,100.00
2023-03-23T22:51:27.353Z,100.00
2023-03-23T22:53:56.474Z,100.00
2023-03-23T22:56:25.001Z,100.00
2023-03-23T22:58:53.326Z,100.00
2023-03-23T23:01:22.816Z,100.00
2023-03-23T23:03:50.778Z,100.00
2023-03-23T23:06:19.972Z,100.00
2023-03-23T23:08:48.192Z,100.00
2023-03-23T23:11:18.165Z,100.00
2023-03-23T23:13:46.102Z,100.00
2023-03-23T23:16:17.413Z,100.00
2023-03-23T23:18:47.810Z,100.00
2023-03-23T23:21:19.050Z,100.00
2023-03-23T23:23:46.891Z,100.00
2023-03-23T23:26:17.108Z,100.00
2023-03-23T23:28:46.636Z,100.00
2023-03-23T23:31:27.024Z,100.00
2023-03-23T23:33:58.341Z,100.00
2023-03-23T23:36:30.559Z,100.00
2023-03-23T23:39:00.056Z,100.00
2023-03-23T23:41:28.227Z,100.00
2023-03-23T23:43:55.838Z,100.00
2023-03-23T23:46:25.857Z,100.00
2023-03-23T23:48:53.361Z,100.00
2023-03-23T23:51:21.036Z,100.00
2023-03-23T23:53:53.694Z,100.00
2023-03-23T23:56:22.494Z,100.00
2023-03-23T23:58:49.906Z,100.00
